createdAt,value
2017-11-27T00:06:09.446Z,-83
2017-11-27T00:08:38.509Z,-83
2017-11-27T00:11:05.657Z,-83
2017-11-27T00:13:33.666Z,-83
2017-11-27T00:16:01.413Z,-83
2017-11-27T00:18:29.816Z,-84
2017-11-27T00:21:00.615Z,-85
2017-11-27T00:23:27.915Z,-85
2017-11-27T00:25:55.119Z,-83
2017-11-27T00:28:23.270Z,-82
2017-11-27T00:30:51.432Z,-84
2017-11-27T00:33:19.228Z,-85
2017-11-27T00:35:48.581Z,-86
2017-11-27T00:38:15.719Z,-85
2017-11-27T00:40:42.757Z,-87
2017-11-27T00:43:10.405Z,-83
2017-11-27T00:45:37.779Z,-83
2017-11-27T00:48:05.574Z,-83
2017-11-27T00:50:33.187Z,-86
2017-11-27T00:53:01.513Z,-86
2017-11-27T00:55:28.460Z,-85
2017-11-27T00:57:57.041Z,-83
2017-11-27T01:00:24.857Z,-85
2017-11-27T01:02:52.667Z,-82
2017-11-27T01:05:19.531Z,-85
2017-11-27T01:07:46.388Z,-85
2017-11-27T01:10:13.257Z,-85
2017-11-27T01:12:40.139Z,-83
2017-11-27T01:15:07.781Z,-85
2017-11-27T01:17:34.629Z,-84
2017-11-27T01:20:01.476Z,-85
2017-11-27T01:22:28.310Z,-86
2017-11-27T01:24:55.925Z,-80
2017-11-27T01:27:22.795Z,-86
2017-11-27T01:29:49.684Z,-87
2017-11-27T01:32:16.572Z,-87
2017-11-27T01:34:43.467Z,-87
2017-11-27T01:37:10.333Z,-88
2017-11-27T01:39:37.204Z,-86
2017-11-27T01:42:04.102Z,-87
2017-11-27T01:44:30.985Z,-89
2017-11-27T01:46:57.847Z,-86
2017-11-27T01:49:24.720Z,-88
2017-11-27T01:51:51.568Z,-88
2017-11-27T01:54:18.443Z,-87
2017-11-27T01:56:45.351Z,-85
2017-11-27T01:59:12.249Z,-84
2017-11-27T02:01:39.883Z,-85
2017-11-27T02:04:06.809Z,-88
2017-11-27T02:06:33.674Z,-88
2017-11-27T02:09:00.569Z,-85
2017-11-27T02:11:27.454Z,-86
2017-11-27T02:13:54.325Z,-85
2017-11-27T02:16:21.953Z,-86
2017-11-27T02:18:48.794Z,-87
2017-11-27T02:21:15.676Z,-89
2017-11-27T02:23:42.572Z,-86
2017-11-27T02:26:09.488Z,-85
2017-11-27T02:28:36.388Z,-86
2017-11-27T02:31:03.300Z,-88
2017-11-27T02:33:30.154Z,-89
2017-11-27T02:35:57.746Z,-85
2017-11-27T02:38:24.616Z,-85
2017-11-27T02:40:51.528Z,-87
2017-11-27T02:43:18.421Z,-84
2017-11-27T02:45:46.070Z,-83
2017-11-27T02:48:13.734Z,-88
2017-11-27T02:50:40.625Z,-85
2017-11-27T02:53:07.505Z,-84
2017-11-27T02:55:35.145Z,-86
2017-11-27T02:58:02.051Z,-86
2017-11-27T03:00:29.754Z,-84
2017-11-27T03:02:57.353Z,-86
2017-11-27T03:05:24.224Z,-84
2017-11-27T03:07:51.130Z,-85
2017-11-27T03:10:18.845Z,-84
2017-11-27T03:12:45.736Z,-84
2017-11-27T03:15:12.671Z,-86
2017-11-27T03:17:39.561Z,-86
2017-11-27T03:20:06.441Z,-85
2017-11-27T03:22:34.035Z,-86
2017-11-27T03:25:01.617Z,-85
2017-11-27T03:27:29.233Z,-85
2017-11-27T03:29:56.144Z,-86
2017-11-27T03:32:23.766Z,-85
2017-11-27T03:34:50.640Z,-85
2017-11-27T03:37:17.526Z,-88
2017-11-27T03:39:44.437Z,-85
2017-11-27T03:42:11.363Z,-85
2017-11-27T03:44:38.221Z,-86
2017-11-27T03:47:05.075Z,-84
2017-11-27T03:49:31.932Z,-84
2017-11-27T03:51:58.776Z,-85
2017-11-27T03:54:25.696Z,-85
2017-11-27T03:56:52.556Z,-85
2017-11-27T03:59:20.192Z,-85
2017-11-27T04:01:47.105Z,-84
2017-11-27T04:04:13.972Z,-84
2017-11-27T04:06:40.816Z,-84
2017-11-27T04:09:08.430Z,-85
2017-11-27T04:11:35.367Z,-87
2017-11-27T04:14:02.234Z,-85
2017-11-27T04:16:29.193Z,-85
2017-11-27T04:18:56.806Z,-84
2017-11-27T04:21:23.734Z,-86
2017-11-27T04:23:51.338Z,-84
2017-11-27T04:26:18.252Z,-87
2017-11-27T04:28:45.140Z,-88
2017-11-27T04:31:11.984Z,-90
2017-11-27T04:33:39.654Z,-87
2017-11-27T04:36:07.342Z,-89
2017-11-27T04:38:34.960Z,-90
2017-11-27T04:41:01.838Z,-89
2017-11-27T04:43:28.781Z,-88
2017-11-27T04:45:55.713Z,-88
2017-11-27T04:48:23.381Z,-89
2017-11-27T04:50:51.037Z,-88
2017-11-27T04:53:17.878Z,-87
2017-11-27T04:55:44.750Z,-89
2017-11-27T04:58:11.599Z,-88
2017-11-27T05:00:38.590Z,-89
2017-11-27T05:03:05.429Z,-87
2017-11-27T05:05:32.323Z,-88
2017-11-27T05:07:59.242Z,-86
2017-11-27T05:10:26.116Z,-84
2017-11-27T05:12:53.021Z,-86
2017-11-27T05:15:19.936Z,-86
2017-11-27T05:17:47.551Z,-85
2017-11-27T05:20:14.431Z,-84
2017-11-27T05:22:42.017Z,-87
2017-11-27T05:25:09.603Z,-86
2017-11-27T05:27:36.499Z,-84
2017-11-27T05:30:03.459Z,-86
2017-11-27T05:32:30.308Z,-88
2017-11-27T05:34:57.195Z,-86
2017-11-27T05:37:24.056Z,-86
2017-11-27T05:39:50.901Z,-86
2017-11-27T05:42:17.727Z,-85
2017-11-27T05:44:45.374Z,-86
2017-11-27T05:47:12.227Z,-85
2017-11-27T05:49:39.097Z,-85
2017-11-27T05:52:05.925Z,-87
2017-11-27T05:54:32.929Z,-85
2017-11-27T05:56:59.805Z,-86
2017-11-27T05:59:27.392Z,-86
2017-11-27T06:01:54.261Z,-85
2017-11-27T06:04:21.831Z,-85
2017-11-27T06:06:49.412Z,-85
2017-11-27T06:09:17.024Z,-87
2017-11-27T06:11:43.916Z,-86
2017-11-27T06:14:10.774Z,-85
2017-11-27T06:16:37.682Z,-86
2017-11-27T06:19:04.549Z,-85
2017-11-27T06:21:31.400Z,-87
2017-11-27T06:23:58.955Z,-89
2017-11-27T06:26:25.767Z,-87
2017-11-27T06:28:52.610Z,-86
2017-11-27T06:31:19.448Z,-85
2017-11-27T06:33:47.056Z,-86
2017-11-27T06:36:13.940Z,-85
2017-11-27T06:38:40.834Z,-84
2017-11-27T06:41:07.682Z,-84
2017-11-27T06:43:34.580Z,-83
2017-11-27T06:46:02.185Z,-85
2017-11-27T06:48:29.089Z,-84
2017-11-27T06:50:56.011Z,-86
2017-11-27T06:53:22.884Z,-84
2017-11-27T06:55:49.792Z,-86
2017-11-27T06:58:16.673Z,-85
2017-11-27T07:00:43.531Z,-84
2017-11-27T07:03:11.088Z,-87
2017-11-27T07:05:37.954Z,-87
2017-11-27T07:08:05.569Z,-88
2017-11-27T07:10:32.398Z,-83
2017-11-27T07:12:59.324Z,-84
2017-11-27T07:15:26.211Z,-82
2017-11-27T07:17:53.087Z,-84
2017-11-27T07:20:19.997Z,-84
2017-11-27T07:22:47.596Z,-84
2017-11-27T07:25:14.436Z,-83
2017-11-27T07:27:41.329Z,-86
2017-11-27T07:30:08.205Z,-85
2017-11-27T07:32:35.042Z,-86
2017-11-27T07:35:01.909Z,-86
2017-11-27T07:37:34.785Z,-86
2017-11-27T07:40:01.662Z,-86
2017-11-27T07:42:28.522Z,-86
2017-11-27T07:44:55.366Z,-87
2017-11-27T07:47:22.205Z,-85
2017-11-27T07:49:49.053Z,-86
2017-11-27T07:52:16.670Z,-86
2017-11-27T07:54:43.551Z,-88
2017-11-27T07:57:10.406Z,-86
2017-11-27T07:59:37.281Z,-87
2017-11-27T08:02:04.159Z,-87
2017-11-27T08:04:31.321Z,-87
2017-11-27T08:06:58.183Z,-86
2017-11-27T08:09:25.019Z,-86
2017-11-27T08:11:51.921Z,-86
2017-11-27T08:14:18.765Z,-87
2017-11-27T08:16:45.635Z,-88
2017-11-27T08:19:12.485Z,-87
2017-11-27T08:21:39.800Z,-86
2017-11-27T08:24:06.680Z,-86
2017-11-27T08:26:33.540Z,-85
2017-11-27T08:29:01.142Z,-85
2017-11-27T08:31:28.032Z,-87
2017-11-27T08:33:54.959Z,-86
2017-11-27T08:36:21.825Z,-87
2017-11-27T08:38:48.679Z,-85
2017-11-27T08:41:15.537Z,-87
2017-11-27T08:43:42.413Z,-86
2017-11-27T08:46:09.286Z,-86
2017-11-27T08:48:36.140Z,-86
2017-11-27T08:51:03.025Z,-86
2017-11-27T08:53:30.034Z,-86
2017-11-27T08:55:56.955Z,-85
2017-11-27T08:58:24.604Z,-88
2017-11-27T09:00:51.492Z,-86
2017-11-27T09:03:18.392Z,-85
2017-11-27T09:05:45.274Z,-86
2017-11-27T09:08:12.116Z,-87
2017-11-27T09:10:39.031Z,-86
2017-11-27T09:13:05.930Z,-86
2017-11-27T09:15:32.837Z,-85
2017-11-27T09:17:59.740Z,-86
2017-11-27T09:20:26.844Z,-86
2017-11-27T09:22:53.751Z,-85
2017-11-27T09:25:20.674Z,-85
2017-11-27T09:27:47.598Z,-85
2017-11-27T09:30:15.216Z,-86
2017-11-27T09:32:42.211Z,-88
2017-11-27T09:35:09.074Z,-85
2017-11-27T09:37:35.964Z,-86
2017-11-27T09:40:02.882Z,-86
2017-11-27T09:42:29.765Z,-87
2017-11-27T09:44:56.998Z,-87
2017-11-27T09:47:23.865Z,-88
2017-11-27T09:49:51.476Z,-86
2017-11-27T09:52:18.391Z,-86
2017-11-27T09:54:45.229Z,-86
2017-11-27T09:57:12.869Z,-88
2017-11-27T09:59:39.740Z,-86
2017-11-27T10:02:07.570Z,-86
2017-11-27T10:04:35.193Z,-86
2017-11-27T10:07:02.101Z,-88
2017-11-27T10:09:29.717Z,-86
2017-11-27T10:11:56.599Z,-86
2017-11-27T10:14:23.482Z,-86
2017-11-27T10:16:50.317Z,-88
2017-11-27T10:19:17.214Z,-89
2017-11-27T10:21:44.135Z,-87
2017-11-27T10:24:11.029Z,-87
2017-11-27T10:26:37.921Z,-87
2017-11-27T10:29:04.792Z,-89
2017-11-27T10:31:31.655Z,-88
2017-11-27T10:33:58.530Z,-88
2017-11-27T10:36:25.425Z,-87
2017-11-27T10:38:52.498Z,-87
2017-11-27T10:41:21.212Z,-87
2017-11-27T10:43:48.181Z,-88
2017-11-27T10:46:15.826Z,-90
2017-11-27T10:48:43.216Z,-89
2017-11-27T10:51:10.927Z,-86
2017-11-27T10:53:37.849Z,-87
2017-11-27T10:56:04.773Z,-86
2017-11-27T10:58:31.636Z,-85
2017-11-27T11:01:04.449Z,-89
2017-11-27T11:03:31.330Z,-87
2017-11-27T11:05:58.249Z,-87
2017-11-27T11:08:25.107Z,-87
2017-11-27T11:10:53.018Z,-89
2017-11-27T11:13:19.894Z,-89
2017-11-27T11:15:46.757Z,-88
2017-11-27T11:18:13.645Z,-88
2017-11-27T11:20:40.501Z,-88
2017-11-27T11:23:07.321Z,-90
2017-11-27T11:25:34.205Z,-87
2017-11-27T11:28:01.070Z,-86
2017-11-27T11:30:27.947Z,-88
2017-11-27T11:32:54.788Z,-87
2017-11-27T11:35:21.635Z,-88
2017-11-27T11:37:48.491Z,-86
2017-11-27T11:40:15.363Z,-87
2017-11-27T11:42:42.217Z,-87
2017-11-27T11:45:09.885Z,-87
2017-11-27T11:47:36.733Z,-86
2017-11-27T11:50:03.583Z,-88
2017-11-27T11:52:31.214Z,-88
2017-11-27T11:54:58.117Z,-87
2017-11-27T11:57:25.776Z,-87
2017-11-27T11:59:52.643Z,-86
2017-11-27T12:02:19.540Z,-85
2017-11-27T12:04:46.435Z,-85
2017-11-27T12:07:13.923Z,-85
2017-11-27T12:09:40.817Z,-84
2017-11-27T12:12:08.388Z,-84
2017-11-27T12:14:35.245Z,-85
2017-11-27T12:17:02.101Z,-84
2017-11-27T12:19:29.159Z,-84
2017-11-27T12:21:56.638Z,-84
2017-11-27T12:24:23.662Z,-86
2017-11-27T12:26:50.913Z,-86
2017-11-27T12:29:18.026Z,-83
2017-11-27T12:31:45.486Z,-85
2017-11-27T12:34:13.201Z,-87
2017-11-27T12:36:40.716Z,-86
2017-11-27T12:39:07.728Z,-85
2017-11-27T12:41:34.800Z,-85
2017-11-27T12:44:01.710Z,-85
2017-11-27T12:46:28.636Z,-85
2017-11-27T12:48:55.603Z,-85
2017-11-27T12:51:22.975Z,-86
2017-11-27T12:53:49.932Z,-87
2017-11-27T12:56:17.550Z,-87
2017-11-27T12:58:44.462Z,-88
2017-11-27T13:01:11.405Z,-86
2017-11-27T13:03:38.408Z,-87
2017-11-27T13:06:05.292Z,-87
2017-11-27T13:08:32.903Z,-84
2017-11-27T13:10:59.922Z,-86
2017-11-27T13:13:26.901Z,-87
2017-11-27T13:15:54.555Z,-85
2017-11-27T13:18:22.271Z,-88
2017-11-27T13:20:49.171Z,-91
2017-11-27T13:23:16.087Z,-90
2017-11-27T13:25:43.716Z,-90
2017-11-27T13:28:10.560Z,-90
2017-11-27T13:30:37.431Z,-90
2017-11-27T13:33:04.293Z,-84
2017-11-27T13:35:31.188Z,-86
2017-11-27T13:37:58.845Z,-86
2017-11-27T13:40:25.734Z,-87
2017-11-27T13:42:52.606Z,-88
2017-11-27T13:45:20.241Z,-87
2017-11-27T13:47:47.170Z,-86
2017-11-27T13:50:14.068Z,-87
2017-11-27T13:52:40.961Z,-85
2017-11-27T13:55:07.802Z,-86
2017-11-27T13:57:34.676Z,-88
2017-11-27T14:00:01.573Z,-86
2017-11-27T14:02:28.484Z,-86
2017-11-27T14:04:55.381Z,-89
2017-11-27T14:07:23.069Z,-86
2017-11-27T14:09:49.943Z,-87
2017-11-27T14:12:16.848Z,-88
2017-11-27T14:14:43.720Z,-86
2017-11-27T14:17:10.562Z,-90
2017-11-27T14:19:37.422Z,-90
2017-11-27T14:22:04.344Z,-90
2017-11-27T14:24:32.013Z,-89
2017-11-27T14:26:59.634Z,-87
2017-11-27T14:29:26.554Z,-86
2017-11-27T14:31:54.145Z,-86
2017-11-27T14:34:21.747Z,-85
2017-11-27T14:36:48.613Z,-86
2017-11-27T14:39:15.555Z,-86
2017-11-27T14:41:42.502Z,-87
2017-11-27T14:44:10.201Z,-86
2017-11-27T14:46:37.131Z,-87
2017-11-27T14:49:04.060Z,-86
2017-11-27T14:51:31.032Z,-89
2017-11-27T14:53:58.175Z,-89
2017-11-27T14:56:26.141Z,-88
2017-11-27T14:58:53.075Z,-88
2017-11-27T15:01:19.970Z,-87
2017-11-27T15:03:46.919Z,-88
2017-11-27T15:06:13.906Z,-88
2017-11-27T15:08:41.784Z,-85
2017-11-27T15:11:08.754Z,-89
2017-11-27T15:13:35.645Z,-86
2017-11-27T15:16:03.293Z,-90
2017-11-27T15:18:30.868Z,-88
2017-11-27T15:20:57.791Z,-92
2017-11-27T15:23:24.786Z,-91
2017-11-27T15:25:52.491Z,-89
2017-11-27T15:28:20.201Z,-90
2017-11-27T15:30:47.255Z,-90
2017-11-27T15:33:14.249Z,-90
2017-11-27T15:35:41.223Z,-90
2017-11-27T15:38:08.178Z,-91
2017-11-27T15:40:35.384Z,-89
2017-11-27T15:43:03.114Z,-90
2017-11-27T15:45:30.184Z,-88
2017-11-27T15:47:57.158Z,-90
2017-11-27T15:50:24.156Z,-90
2017-11-27T15:52:51.207Z,-90
2017-11-27T15:55:18.957Z,-93
2017-11-27T15:57:46.244Z,-90
2017-11-27T16:00:13.645Z,-89
2017-11-27T16:02:41.347Z,-93
2017-11-27T16:05:08.520Z,-92
2017-11-27T16:07:35.483Z,-91
2017-11-27T16:10:02.559Z,-90
2017-11-27T16:12:30.289Z,-92
2017-11-27T16:14:57.322Z,-90
2017-11-27T16:17:24.324Z,-92
2017-11-27T16:19:52.033Z,-91
2017-11-27T16:22:19.150Z,-90
2017-11-27T16:24:46.178Z,-91
2017-11-27T16:27:13.175Z,-91
2017-11-27T16:29:40.132Z,-92
2017-11-27T16:32:07.085Z,-89
2017-11-27T16:34:34.065Z,-92
2017-11-27T16:37:01.057Z,-91
2017-11-27T16:39:28.777Z,-91
2017-11-27T16:41:55.735Z,-90
2017-11-27T16:44:22.716Z,-92
2017-11-27T16:46:50.377Z,-93
2017-11-27T16:49:17.331Z,-90
2017-11-27T16:51:44.308Z,-91
2017-11-27T16:54:11.305Z,-93
2017-11-27T16:56:38.277Z,-91
2017-11-27T16:59:05.210Z,-89
2017-11-27T17:01:32.215Z,-88
2017-11-27T17:03:59.173Z,-89
2017-11-27T17:06:26.130Z,-90
2017-11-27T17:08:53.063Z,-88
2017-11-27T17:11:19.975Z,-88
2017-11-27T17:13:46.893Z,-89
2017-11-27T17:16:13.822Z,-89
2017-11-27T17:18:41.476Z,-88
2017-11-27T17:21:08.409Z,-88
2017-11-27T17:23:35.358Z,-90
2017-11-27T17:26:02.291Z,-91
2017-11-27T17:28:30.120Z,-92
2017-11-27T17:30:57.073Z,-91
2017-11-27T17:33:25.676Z,-90
2017-11-27T17:35:52.672Z,-91
2017-11-27T17:38:19.690Z,-92
2017-11-27T17:40:46.725Z,-88
2017-11-27T17:43:14.353Z,-92
2017-11-27T17:45:42.032Z,-90
2017-11-27T17:48:08.999Z,-92
2017-11-27T17:50:35.949Z,-89
2017-11-27T17:53:02.957Z,-92
2017-11-27T17:55:29.977Z,-92
2017-11-27T17:57:56.870Z,-90
2017-11-27T18:00:25.193Z,-88
2017-11-27T18:02:52.938Z,-91
2017-11-27T18:05:19.891Z,-88
2017-11-27T18:07:47.394Z,-90
2017-11-27T18:10:14.405Z,-88
2017-11-27T18:12:41.361Z,-89
2017-11-27T18:15:09.028Z,-91
2017-11-27T18:17:36.052Z,-89
2017-11-27T18:20:03.064Z,-90
2017-11-27T18:22:30.760Z,-91
2017-11-27T18:24:58.508Z,-88
2017-11-27T18:27:26.544Z,-89
2017-11-27T18:29:53.563Z,-89
2017-11-27T18:32:20.511Z,-88
2017-11-27T18:34:47.486Z,-90
2017-11-27T18:37:14.449Z,-90
2017-11-27T18:39:41.464Z,-90
2017-11-27T18:42:08.461Z,-90
2017-11-27T18:44:35.522Z,-90
2017-11-27T18:47:02.745Z,-91
2017-11-27T18:49:30.806Z,-92
2017-11-27T18:51:57.886Z,-91
2017-11-27T18:54:24.966Z,-92
2017-11-27T18:56:54.311Z,-91
2017-11-27T18:59:22.739Z,-90
2017-11-27T19:01:49.763Z,-89
2017-11-27T19:04:18.220Z,-90
2017-11-27T19:06:46.400Z,-90
2017-11-27T19:09:13.660Z,-90
2017-11-27T19:11:40.982Z,-90
2017-11-27T19:14:08.017Z,-90
2017-11-27T19:16:34.948Z,-88
2017-11-27T19:19:01.886Z,-86
2017-11-27T19:21:28.813Z,-86
2017-11-27T19:23:55.745Z,-86
2017-11-27T19:26:23.378Z,-87
2017-11-27T19:28:52.368Z,-89
2017-11-27T19:31:19.456Z,-90
2017-11-27T19:33:47.557Z,-92
2017-11-27T19:36:14.674Z,-89
2017-11-27T19:38:41.925Z,-86
2017-11-27T19:41:08.883Z,-87
2017-11-27T19:43:36.875Z,-88
2017-11-27T19:46:04.242Z,-89
2017-11-27T19:48:31.411Z,-89
2017-11-27T19:50:58.974Z,-89
2017-11-27T19:53:26.097Z,-90
2017-11-27T19:55:53.059Z,-91
2017-11-27T19:58:20.757Z,-90
2017-11-27T20:00:47.724Z,-89
2017-11-27T20:03:15.517Z,-87
2017-11-27T20:05:42.592Z,-86
2017-11-27T20:08:09.930Z,-88
2017-11-27T20:10:37.007Z,-89
2017-11-27T20:13:05.254Z,-89
2017-11-27T20:15:33.678Z,-92
2017-11-27T20:18:00.744Z,-89
2017-11-27T20:20:28.509Z,-89
2017-11-27T20:22:56.650Z,-90
2017-11-27T20:25:23.738Z,-91
2017-11-27T20:27:51.843Z,-87
2017-11-27T20:30:19.405Z,-86
2017-11-27T20:32:46.416Z,-89
2017-11-27T20:35:13.469Z,-91
2017-11-27T20:37:40.486Z,-89
2017-11-27T20:40:07.466Z,-87
2017-11-27T20:42:35.088Z,-87
2017-11-27T20:45:03.397Z,-88
2017-11-27T20:47:31.176Z,-88
2017-11-27T20:49:58.956Z,-86
2017-11-27T20:52:25.939Z,-89
2017-11-27T20:54:53.729Z,-89
2017-11-27T20:57:21.114Z,-87
2017-11-27T20:59:48.151Z,-87
2017-11-27T21:02:15.874Z,-89
2017-11-27T21:04:42.940Z,-91
2017-11-27T21:07:09.876Z,-90
2017-11-27T21:09:37.564Z,-88
2017-11-27T21:12:04.538Z,-85
2017-11-27T21:14:31.543Z,-88
2017-11-27T21:16:58.784Z,-86
2017-11-27T21:19:25.866Z,-86
2017-11-27T21:21:52.868Z,-86
2017-11-27T21:24:20.589Z,-90
2017-11-27T21:26:47.538Z,-88
2017-11-27T21:29:14.481Z,-88
2017-11-27T21:31:42.350Z,-90
2017-11-27T21:34:10.314Z,-84
2017-11-27T21:36:37.745Z,-87
2017-11-27T21:39:05.452Z,-85
2017-11-27T21:41:32.552Z,-88
2017-11-27T21:43:59.514Z,-87
2017-11-27T21:46:26.446Z,-88
2017-11-27T21:48:53.402Z,-87
2017-11-27T21:51:20.397Z,-87
2017-11-27T21:53:47.313Z,-88
2017-11-27T21:56:14.275Z,-89
2017-11-27T21:58:41.921Z,-87
2017-11-27T22:01:08.895Z,-87
2017-11-27T22:03:35.927Z,-89
2017-11-27T22:06:03.412Z,-87
2017-11-27T22:08:30.306Z,-88
2017-11-27T22:10:58.901Z,-91
2017-11-27T22:13:27.501Z,-85
2017-11-27T22:15:57.384Z,-88
2017-11-27T22:18:27.678Z,-87
2017-11-27T22:20:57.709Z,-85
2017-11-27T22:36:28.841Z,-86
2017-11-27T22:38:59.005Z,-88
2017-11-27T22:41:26.414Z,-85
2017-11-27T22:43:53.644Z,-85
2017-11-27T22:46:24.033Z,-85
2017-11-27T22:48:52.004Z,-85
2017-11-27T22:51:20.385Z,-86
2017-11-27T22:53:51.312Z,-87
2017-11-27T22:56:21.578Z,-87
2017-11-27T22:58:52.282Z,-84
2017-11-27T23:01:19.391Z,-86
2017-11-27T23:03:46.955Z,-88
2017-11-27T23:06:16.333Z,-85
2017-11-27T23:08:44.261Z,-85
2017-11-27T23:11:11.524Z,-86
2017-11-27T23:13:38.460Z,-85
2017-11-27T23:16:05.357Z,-84
2017-11-27T23:18:33.030Z,-84
2017-11-27T23:21:00.018Z,-87
2017-11-27T23:23:26.923Z,-85
2017-11-27T23:25:53.828Z,-86
2017-11-27T23:28:20.670Z,-84
2017-11-27T23:30:48.315Z,-85
2017-11-27T23:33:15.236Z,-89
2017-11-27T23:35:42.133Z,-88
2017-11-27T23:38:09.074Z,-88
2017-11-27T23:40:35.940Z,-86
2017-11-27T23:43:02.868Z,-86
2017-11-27T23:45:29.768Z,-88
2017-11-27T23:47:56.709Z,-88
2017-11-27T23:50:23.592Z,-87
2017-11-27T23:52:50.527Z,-87
2017-11-27T23:55:17.421Z,-86
2017-11-27T23:57:44.380Z,-86
